Time;durP1;ratioP1;P1;durP2;ratioP2;P2;SDS_P1;SDS_P2;PMS_P1;PMS_P2;Temp;Humidity;BMP_temperature;BMP_pressure;BME280_temperature;BME280_humidity;BME280_pressure;Samples;Min_cycle;Max_cycle;Signal;HPM_P1;HPM_P2
2022/06/26 00:00:25;;;;;;;19.67;17.77;;;18.30;99.90;;;;;;5066441;28;20182;-64
2022/06/26 00:02:50;;;;;;;22.17;19.75;;;18.30;99.90;;;;;;5065356;28;20146;-64
2022/06/26 00:05:16;;;;;;;21.05;18.75;;;18.30;99.90;;;;;;5063701;28;20057;-64
2022/06/26 00:07:42;;;;;;;20.30;18.38;;;18.30;99.90;;;;;;5065910;28;20538;-64
2022/06/26 00:10:08;;;;;;;20.70;18.63;;;18.20;99.90;;;;;;5065326;28;20048;-64
2022/06/26 00:12:34;;;;;;;18.35;16.60;;;18.20;99.90;;;;;;5065468;28;20036;-64
2022/06/26 00:15:00;;;;;;;25.50;19.67;;;18.20;99.90;;;;;;5065430;28;20082;-64
2022/06/26 00:17:26;;;;;;;20.50;18.50;;;18.20;99.90;;;;;;5065461;28;20363;-64
2022/06/26 00:19:53;;;;;;;22.05;19.85;;;18.20;99.90;;;;;;5065154;28;20049;-64
2022/06/26 00:22:19;;;;;;;21.67;19.67;;;18.20;99.90;;;;;;5065919;28;20080;-64
2022/06/26 00:24:45;;;;;;;20.52;18.45;;;18.10;99.90;;;;;;5065042;28;20029;-64
2022/06/26 00:27:11;;;;;;;19.98;18.13;;;18.10;99.90;;;;;;5064104;28;20044;-64
2022/06/26 00:29:36;;;;;;;17.15;15.45;;;18.30;99.90;;;;;;5065665;28;20036;-64
2022/06/26 00:32:04;;;;;;;18.90;17.00;;;18.10;99.90;;;;;;5064759;28;20057;-64
2022/06/26 00:34:30;;;;;;;16.50;14.88;;;18.10;99.90;;;;;;5065613;28;20410;-64
2022/06/26 00:36:56;;;;;;;18.85;16.60;;;18.00;99.90;;;;;;5065747;28;20226;-64
2022/06/26 00:39:22;;;;;;;18.02;16.05;;;18.10;99.90;;;;;;5064959;28;20044;-64
2022/06/26 00:41:48;;;;;;;17.90;16.27;;;18.00;99.90;;;;;;5064987;28;20403;-64
2022/06/26 00:44:19;;;;;;;16.40;14.70;;;18.00;99.90;;;;;;5065774;28;20036;-64
2022/06/26 00:46:45;;;;;;;19.25;16.83;;;18.00;99.90;;;;;;5064908;28;20044;-64
2022/06/26 00:49:12;;;;;;;19.48;17.50;;;18.00;99.90;;;;;;5065618;28;20077;-64
2022/06/26 00:51:50;;;;;;;20.00;18.00;;;18.00;99.90;;;;;;5065866;28;20086;-64
2022/06/26 00:54:15;;;;;;;22.02;19.05;;;18.00;99.90;;;;;;5064724;28;20484;-64
2022/06/26 00:56:41;;;;;;;21.08;18.80;;;18.00;99.90;;;;;;5066287;28;20095;-64
2022/06/26 00:59:07;;;;;;;20.92;18.48;;;18.00;99.90;;;;;;5068696;28;20094;-64
2022/06/26 01:01:34;;;;;;;20.10;17.95;;;18.00;99.90;;;;;;5068674;28;20044;-64
2022/06/26 01:04:00;;;;;;;16.08;13.75;;;18.00;99.90;;;;;;5069063;28;20071;-64
2022/06/26 01:06:27;;;;;;;15.85;13.73;;;17.90;99.90;;;;;;5069543;28;20348;-63
2022/06/26 01:08:54;;;;;;;15.18;13.70;;;17.80;99.90;;;;;;5068291;28;20052;-64
2022/06/26 01:11:20;;;;;;;16.75;15.05;;;17.80;99.90;;;;;;5068952;28;20041;-64
2022/06/26 01:13:52;;;;;;;18.73;15.52;;;17.80;99.90;;;;;;5067969;28;20548;-64
2022/06/26 01:16:19;;;;;;;16.52;14.30;;;17.70;99.90;;;;;;5069032;28;20044;-64
2022/06/26 01:18:47;;;;;;;15.35;13.32;;;17.80;99.90;;;;;;5069033;28;20380;-64
2022/06/26 01:21:13;;;;;;;18.55;15.10;;;17.80;99.90;;;;;;5067977;28;20380;-64
2022/06/26 01:23:39;;;;;;;16.67;14.48;;;17.80;99.90;;;;;;5068826;28;20393;-64
2022/06/26 01:26:05;;;;;;;18.23;14.32;;;17.80;99.90;;;;;;5068646;28;20196;-64
2022/06/26 01:28:31;;;;;;;14.18;12.60;;;17.90;99.90;;;;;;5067051;28;20048;-64
2022/06/26 01:30:56;;;;;;;19.55;13.55;;;17.90;99.90;;;;;;5067292;28;20055;-64
2022/06/26 01:33:23;;;;;;;16.52;13.38;;;17.90;99.90;;;;;;5068918;28;20082;-64
2022/06/26 01:35:48;;;;;;;15.13;13.18;;;18.00;99.90;;;;;;5067545;28;20124;-64
2022/06/26 01:38:22;;;;;;;12.95;11.63;;;18.00;99.90;;;;;;5068308;28;20162;-64
2022/06/26 01:40:50;;;;;;;22.25;12.30;;;18.00;99.90;;;;;;5068268;28;20086;-64
2022/06/26 01:43:21;;;;;;;14.82;11.57;;;17.90;99.90;;;;;;5067571;28;20587;-64
2022/06/26 01:45:48;;;;;;;13.85;11.52;;;18.10;99.90;;;;;;5066920;28;20048;-63
2022/06/26 01:48:15;;;;;;;16.63;11.52;;;18.00;99.90;;;;;;5068568;28;20044;-64
2022/06/26 01:50:42;;;;;;;16.70;11.77;;;18.00;99.90;;;;;;5067871;28;20048;-64
2022/06/26 01:53:08;;;;;;;15.65;11.20;;;17.90;99.90;;;;;;5066863;28;20075;-64
2022/06/26 01:55:34;;;;;;;16.67;11.48;;;17.90;99.90;;;;;;5068300;28;20040;-64
2022/06/26 01:58:02;;;;;;;15.20;10.82;;;18.00;99.90;;;;;;5067030;28;20059;-64
2022/06/26 02:00:33;;;;;;;15.50;10.98;;;18.00;99.90;;;;;;5068721;28;20048;-64
2022/06/26 02:02:59;;;;;;;15.02;10.50;;;17.90;99.90;;;;;;5067487;28;20119;-64
2022/06/26 02:05:25;;;;;;;11.77;9.90;;;17.90;99.90;;;;;;5068451;28;20163;-64
2022/06/26 02:07:51;;;;;;;17.67;10.02;;;17.90;99.90;;;;;;5067690;28;20154;-64
2022/06/26 02:15:51;;;;;;;9.88;8.70;;;17.90;99.90;;;;;;5066064;28;20071;-64
2022/06/26 02:18:16;;;;;;;11.55;8.32;;;17.90;99.90;;;;;;5066996;28;20509;-64
2022/06/26 02:20:42;;;;;;;13.88;8.60;;;17.90;99.90;;;;;;5066400;28;20132;-64
2022/06/26 02:23:09;;;;;;;14.55;9.25;;;17.90;99.90;;;;;;5065927;28;20071;-64
2022/06/26 02:25:35;;;;;;;15.20;9.10;;;17.90;99.90;;;;;;5067537;28;20066;-63
2022/06/26 02:28:00;;;;;;;13.70;9.13;;;17.90;99.90;;;;;;5067331;28;20059;-64
2022/06/26 02:30:26;;;;;;;11.55;7.18;;;17.90;99.90;;;;;;5067799;28;20574;-64
2022/06/26 02:32:52;;;;;;;11.23;8.45;;;17.80;99.90;;;;;;5066449;28;20131;-64
2022/06/26 02:35:18;;;;;;;10.13;8.35;;;17.80;99.90;;;;;;5066074;28;20290;-64
2022/06/26 02:37:44;;;;;;;10.88;8.68;;;17.70;99.90;;;;;;5067639;28;20040;-64
2022/06/26 02:40:10;;;;;;;9.75;8.05;;;17.70;99.90;;;;;;5066193;28;20102;-64
2022/06/26 02:42:36;;;;;;;13.05;8.88;;;17.70;99.90;;;;;;5066462;28;20123;-64
2022/06/26 02:45:03;;;;;;;11.82;9.10;;;17.70;99.90;;;;;;5066562;28;20040;-63
2022/06/26 02:47:29;;;;;;;12.13;8.75;;;17.70;99.90;;;;;;5067523;28;20044;-63
2022/06/26 02:49:54;;;;;;;16.00;8.38;;;17.70;99.90;;;;;;5067119;28;20067;-63
2022/06/26 02:52:20;;;;;;;9.10;7.82;;;17.70;99.90;;;;;;5066688;28;20482;-63
2022/06/26 02:54:45;;;;;;;12.35;8.35;;;17.60;99.90;;;;;;5066893;28;20048;-63
2022/06/26 02:57:11;;;;;;;9.55;8.40;;;17.60;99.90;;;;;;5066846;28;20068;-63
2022/06/26 02:59:37;;;;;;;9.27;8.05;;;17.60;99.90;;;;;;5065227;28;20201;-64
2022/06/26 03:02:02;;;;;;;8.85;7.45;;;17.50;99.90;;;;;;5066750;28;20037;-63
2022/06/26 03:04:28;;;;;;;9.13;6.47;;;17.50;99.90;;;;;;5067172;28;20116;-63
2022/06/26 03:06:53;;;;;;;7.32;6.72;;;17.80;99.90;;;;;;5065925;28;20166;-63
2022/06/26 03:09:19;;;;;;;10.43;7.15;;;17.50;99.90;;;;;;5067006;28;20389;-63
2022/06/26 03:11:45;;;;;;;8.20;7.13;;;17.50;99.90;;;;;;5066853;28;20044;-63
2022/06/26 03:14:11;;;;;;;7.00;6.22;;;17.50;99.90;;;;;;5064637;28;20448;-63
2022/06/26 03:16:36;;;;;;;7.18;6.55;;;17.50;99.90;;;;;;5065245;28;20485;-63
2022/06/26 03:19:02;;;;;;;8.15;6.35;;;17.50;99.90;;;;;;5066324;28;20041;-63
2022/06/26 03:21:29;;;;;;;8.57;7.43;;;17.50;99.90;;;;;;5064549;28;20049;-63
2022/06/26 03:24:04;;;;;;;8.98;6.63;;;17.50;99.90;;;;;;5066583;28;20116;-63
2022/06/26 03:26:35;;;;;;;8.10;6.30;;;17.50;99.90;;;;;;5066533;28;20039;-64
2022/06/26 03:29:01;;;;;;;7.43;6.65;;;17.50;99.90;;;;;;5065484;28;20052;-63
2022/06/26 03:31:27;;;;;;;6.80;6.10;;;17.50;99.90;;;;;;5065441;28;20356;-63
2022/06/26 03:33:54;;;;;;;5.90;5.40;;;17.50;99.90;;;;;;5064595;28;20055;-63
2022/06/26 03:36:21;;;;;;;6.05;5.45;;;17.50;99.90;;;;;;5065643;28;20340;-64
2022/06/26 03:38:47;;;;;;;5.32;4.82;;;17.40;99.90;;;;;;5065958;28;20506;-63
2022/06/26 03:41:12;;;;;;;6.70;4.80;;;17.40;99.90;;;;;;5066279;28;20045;-63
2022/06/26 03:43:38;;;;;;;9.02;4.68;;;17.40;99.90;;;;;;5064261;28;20052;-63
2022/06/26 03:46:04;;;;;;;8.52;5.30;;;17.40;99.90;;;;;;5065930;28;20040;-63
2022/06/26 03:48:30;;;;;;;5.35;4.63;;;17.40;99.90;;;;;;5064437;28;20381;-64
2022/06/26 03:50:56;;;;;;;8.13;4.68;;;17.30;99.90;;;;;;5066261;28;20130;-63
2022/06/26 03:53:22;;;;;;;4.22;3.83;;;17.30;99.90;;;;;;5066284;28;20090;-63
2022/06/26 03:55:48;;;;;;;4.18;3.75;;;17.30;99.90;;;;;;5063682;28;20355;-64
2022/06/26 03:58:13;;;;;;;4.65;4.15;;;17.30;99.90;;;;;;5065990;28;20044;-63
2022/06/26 04:00:39;;;;;;;3.78;3.47;;;17.20;99.90;;;;;;5066383;28;20044;-63
2022/06/26 04:03:06;;;;;;;4.10;3.63;;;17.20;99.90;;;;;;5065269;28;20389;-64
2022/06/26 04:05:37;;;;;;;4.28;3.20;;;17.20;99.90;;;;;;5066241;28;20040;-63
2022/06/26 04:08:03;;;;;;;4.60;3.78;;;17.20;99.90;;;;;;5066055;28;20045;-63
2022/06/26 04:10:30;;;;;;;4.97;3.30;;;17.20;99.90;;;;;;5065460;28;20380;-63
2022/06/26 04:13:00;;;;;;;6.72;3.65;;;17.30;99.90;;;;;;5065737;28;20047;-64
2022/06/26 04:15:27;;;;;;;4.95;3.55;;;17.20;99.90;;;;;;5064764;28;20052;-63
2022/06/26 04:17:53;;;;;;;4.43;3.92;;;17.20;99.90;;;;;;5064869;28;20064;-63
2022/06/26 04:20:19;;;;;;;3.67;3.10;;;17.30;99.90;;;;;;5065744;28;20149;-63
2022/06/26 04:23:02;;;;;;;4.15;3.75;;;17.20;99.90;;;;;;5064479;28;20074;-63
2022/06/26 04:25:29;;;;;;;5.55;4.15;;;17.20;99.90;;;;;;5065631;28;20107;-64
2022/06/26 04:27:56;;;;;;;4.45;3.60;;;17.30;99.90;;;;;;5065641;28;20045;-63
2022/06/26 04:30:22;;;;;;;4.75;3.50;;;17.30;99.90;;;;;;5065876;28;20385;-63
2022/06/26 04:32:48;;;;;;;3.95;3.63;;;17.30;99.90;;;;;;5066187;28;20106;-63
2022/06/26 04:35:14;;;;;;;4.10;3.30;;;17.30;99.90;;;;;;5070039;28;20091;-63
2022/06/26 04:37:40;;;;;;;5.70;3.63;;;17.30;99.90;;;;;;5069254;28;20045;-63
2022/06/26 04:40:08;;;;;;;7.63;3.58;;;17.30;99.90;;;;;;5068119;28;20063;-63
2022/06/26 04:42:33;;;;;;;5.85;3.10;;;17.30;99.90;;;;;;5069874;28;20048;-64
2022/06/26 04:44:59;;;;;;;4.45;3.38;;;17.30;99.90;;;;;;5068509;28;20043;-63
2022/06/26 04:47:25;;;;;;;3.72;3.42;;;17.40;99.90;;;;;;5069700;28;20088;-63
2022/06/26 04:49:50;;;;;;;6.03;3.50;;;17.40;99.90;;;;;;5069157;28;20056;-63
2022/06/26 04:52:16;;;;;;;5.15;3.30;;;17.30;99.90;;;;;;5068908;28;20131;-63
2022/06/26 04:54:43;;;;;;;3.53;3.20;;;17.30;99.90;;;;;;5069331;28;20046;-63
2022/06/26 04:57:09;;;;;;;3.55;3.20;;;17.40;99.90;;;;;;5068754;28;20063;-63
2022/06/26 04:59:35;;;;;;;3.55;2.83;;;17.40;99.90;;;;;;5069117;28;20112;-63
2022/06/26 05:02:01;;;;;;;11.00;3.72;;;17.60;99.90;;;;;;5068994;28;20045;-63
2022/06/26 05:04:26;;;;;;;3.13;2.92;;;17.40;99.90;;;;;;5068293;28;20557;-63
2022/06/26 05:06:52;;;;;;;4.07;3.70;;;17.40;99.90;;;;;;5068103;28;20076;-63
2022/06/26 05:09:18;;;;;;;3.80;3.45;;;17.40;99.90;;;;;;5069089;28;20044;-63
2022/06/26 05:11:44;;;;;;;5.65;3.53;;;17.40;99.90;;;;;;5069137;28;20131;-64
2022/06/26 05:14:10;;;;;;;4.20;3.33;;;17.40;99.90;;;;;;5067907;28;20066;-63
2022/06/26 05:16:36;;;;;;;4.38;3.67;;;17.40;99.90;;;;;;5068123;28;20045;-64
2022/06/26 05:19:02;;;;;;;5.03;3.95;;;17.50;99.90;;;;;;5069029;28;20105;-64
2022/06/26 05:21:28;;;;;;;5.43;3.65;;;17.50;99.90;;;;;;5068320;28;20041;-64
2022/06/26 05:23:53;;;;;;;3.92;3.58;;;17.50;99.90;;;;;;5068461;28;20495;-63
2022/06/26 05:26:19;;;;;;;4.95;4.55;;;17.60;99.90;;;;;;5068842;28;20534;-64
2022/06/26 05:28:44;;;;;;;8.13;5.00;;;17.60;99.90;;;;;;5068288;28;20056;-63
2022/06/26 05:31:10;;;;;;;6.65;5.07;;;17.70;99.90;;;;;;5067201;28;20088;-63
2022/06/26 05:33:36;;;;;;;5.82;5.30;;;17.70;99.90;;;;;;5069029;28;20410;-64
2022/06/26 05:36:02;;;;;;;6.20;5.60;;;17.10;99.90;;;;;;5067910;28;20216;-64
2022/06/26 05:38:27;;;;;;;8.15;6.88;;;17.70;99.90;;;;;;5068842;28;20141;-64
2022/06/26 05:40:53;;;;;;;7.22;6.47;;;17.70;99.90;;;;;;5067561;28;20560;-63
2022/06/26 05:43:19;;;;;;;7.30;6.63;;;17.70;99.90;;;;;;5066902;28;20105;-63
2022/06/26 05:45:44;;;;;;;9.70;8.15;;;17.70;99.90;;;;;;5068725;28;20040;-63
2022/06/26 05:48:10;;;;;;;10.20;7.55;;;17.70;99.90;;;;;;5067502;28;20099;-64
2022/06/26 05:50:35;;;;;;;8.88;7.13;;;17.70;99.90;;;;;;5068614;28;20087;-64
2022/06/26 05:53:01;;;;;;;17.00;7.95;;;17.70;99.90;;;;;;5068131;28;20044;-64
2022/06/26 05:55:27;;;;;;;8.75;7.75;;;17.70;99.90;;;;;;5066462;28;20049;-64
2022/06/26 05:57:53;;;;;;;9.70;8.27;;;17.70;99.90;;;;;;5068181;28;20491;-66
2022/06/26 06:00:18;;;;;;;8.75;7.82;;;17.70;99.90;;;;;;5068108;28;20090;-66
2022/06/26 06:02:45;;;;;;;9.32;8.43;;;17.70;99.90;;;;;;5067417;28;20045;-66
2022/06/26 06:05:11;;;;;;;8.43;7.63;;;17.40;99.90;;;;;;5067946;28;20048;-66
2022/06/26 06:07:37;;;;;;;9.32;8.25;;;17.80;99.90;;;;;;5068059;28;20071;-66
2022/06/26 06:10:05;;;;;;;8.93;8.02;;;18.00;99.90;;;;;;5067442;28;20041;-64
2022/06/26 06:12:31;;;;;;;9.18;8.27;;;17.80;99.90;;;;;;5066516;28;20047;-64
2022/06/26 06:14:56;;;;;;;9.68;7.78;;;17.80;99.90;;;;;;5067756;28;20044;-63
2022/06/26 06:17:37;;;;;;;10.05;7.65;;;17.80;99.90;;;;;;5067291;28;20063;-64
2022/06/26 06:20:13;;;;;;;9.60;8.70;;;17.90;99.90;;;;;;5067762;28;20044;-64
2022/06/26 06:22:44;;;;;;;9.48;8.57;;;18.00;99.90;;;;;;5067494;28;20483;-63
2022/06/26 06:25:10;;;;;;;11.43;10.32;;;18.10;99.90;;;;;;5066816;28;20052;-64
2022/06/26 06:27:36;;;;;;;10.43;9.43;;;18.00;99.90;;;;;;5067893;28;20430;-64
2022/06/26 06:30:04;;;;;;;13.23;10.50;;;18.20;99.90;;;;;;5067178;28;20052;-64
2022/06/26 06:32:30;;;;;;;11.43;10.43;;;18.00;99.90;;;;;;5067591;28;20450;-63
2022/06/26 06:34:55;;;;;;;16.42;11.63;;;18.00;99.90;;;;;;5067160;28;20262;-63
2022/06/26 06:37:21;;;;;;;12.15;11.05;;;18.00;99.90;;;;;;5067132;28;20119;-64
2022/06/26 06:39:46;;;;;;;12.63;11.40;;;18.00;99.90;;;;;;5065903;28;20052;-64
2022/06/26 06:42:12;;;;;;;11.57;10.32;;;18.00;99.90;;;;;;5067054;28;20260;-64
2022/06/26 06:44:38;;;;;;;12.85;11.23;;;18.00;99.90;;;;;;5065570;28;20059;-64
2022/06/26 06:47:04;;;;;;;12.45;11.10;;;18.00;99.90;;;;;;5067293;28;20044;-64
2022/06/26 06:49:30;;;;;;;12.15;11.05;;;18.00;99.90;;;;;;5065745;28;20044;-64
2022/06/26 06:51:56;;;;;;;11.68;10.52;;;18.10;99.90;;;;;;5066662;28;20214;-64
2022/06/26 06:54:22;;;;;;;11.98;10.82;;;18.30;99.90;;;;;;5066757;28;20415;-64
2022/06/26 06:56:47;;;;;;;11.40;10.30;;;18.10;99.90;;;;;;5066944;28;20384;-64
2022/06/26 06:59:13;;;;;;;12.90;11.60;;;18.10;99.90;;;;;;5066392;28;20044;-63
2022/06/26 07:01:39;;;;;;;17.33;12.43;;;18.10;99.90;;;;;;5067135;28;20376;-64
2022/06/26 07:04:06;;;;;;;13.52;12.20;;;18.00;99.90;;;;;;5066883;28;20089;-64
2022/06/26 07:06:32;;;;;;;14.52;12.93;;;18.10;99.90;;;;;;5066541;28;20447;-64
2022/06/26 07:08:57;;;;;;;17.08;12.73;;;18.10;99.90;;;;;;5066820;28;20047;-64
2022/06/26 07:11:23;;;;;;;15.02;13.18;;;18.10;99.90;;;;;;5066673;28;20036;-64
2022/06/26 07:13:48;;;;;;;15.88;14.20;;;18.10;99.90;;;;;;5065771;28;20241;-64
2022/06/26 07:16:14;;;;;;;15.52;13.93;;;18.10;99.90;;;;;;5066405;28;20041;-64
2022/06/26 07:18:41;;;;;;;16.35;13.95;;;18.20;99.90;;;;;;5066739;28;20078;-64
2022/06/26 07:21:07;;;;;;;17.77;15.88;;;18.20;99.90;;;;;;5065632;28;20041;-64
2022/06/26 07:23:33;;;;;;;19.75;17.65;;;18.20;99.90;;;;;;5066720;28;20051;-64
2022/06/26 07:25:59;;;;;;;17.77;15.90;;;18.40;99.90;;;;;;5065354;28;20120;-64
2022/06/26 07:28:25;;;;;;;18.52;16.73;;;18.30;99.90;;;;;;5066101;28;20167;-64
2022/06/26 07:30:52;;;;;;;19.80;17.80;;;18.30;99.90;;;;;;5064951;28;20119;-64
2022/06/26 07:36:02;;;;;;;16.95;14.48;;;18.30;99.90;;;;;;5066149;28;20415;-64
2022/06/26 07:38:28;;;;;;;14.88;13.38;;;18.30;99.90;;;;;;5066965;28;20109;-64
2022/06/26 07:40:54;;;;;;;17.05;13.70;;;18.30;99.90;;;;;;5065305;28;20040;-64
2022/06/26 07:43:19;;;;;;;16.48;14.70;;;18.30;99.90;;;;;;5066177;28;20044;-64
2022/06/26 07:45:45;;;;;;;17.50;14.30;;;18.50;99.90;;;;;;5065820;28;20495;-64
2022/06/26 07:48:11;;;;;;;18.75;16.77;;;18.60;99.90;;;;;;5065340;28;20044;-64
2022/06/26 07:50:36;;;;;;;18.77;16.13;;;18.80;99.90;;;;;;5066360;28;20036;-64
2022/06/26 07:53:02;;;;;;;17.10;15.35;;;19.00;99.90;;;;;;5064704;28;20040;-64
2022/06/26 07:55:28;;;;;;;17.10;15.32;;;19.10;99.90;;;;;;5064645;28;20510;-64
2022/06/26 07:57:53;;;;;;;16.95;13.45;;;19.20;99.90;;;;;;5065499;28;20127;-64
2022/06/26 08:00:19;;;;;;;16.58;14.25;;;19.20;99.90;;;;;;5065722;28;20659;-64
2022/06/26 08:02:45;;;;;;;14.88;13.48;;;19.20;99.90;;;;;;5065342;28;20084;-64
2022/06/26 08:05:11;;;;;;;15.55;12.90;;;19.20;99.90;;;;;;5064615;28;20407;-64
2022/06/26 08:07:37;;;;;;;13.43;12.02;;;19.40;99.90;;;;;;5065623;28;20061;-64
2022/06/26 08:10:03;;;;;;;13.30;11.90;;;19.50;99.90;;;;;;5063714;28;20040;-64
2022/06/26 08:12:29;;;;;;;12.65;11.32;;;19.60;99.90;;;;;;5066403;28;20074;-64
2022/06/26 08:14:55;;;;;;;17.15;11.10;;;19.90;99.90;;;;;;5064506;28;20044;-64
2022/06/26 08:17:20;;;;;;;9.02;8.00;;;20.10;99.90;;;;;;5063493;28;20044;-64
2022/06/26 08:19:47;;;;;;;10.45;8.55;;;20.30;99.90;;;;;;5065584;28;20037;-64
2022/06/26 08:22:13;;;;;;;7.93;6.40;;;20.40;99.90;;;;;;5065642;28;20263;-64
2022/06/26 08:24:41;;;;;;;7.38;6.60;;;20.30;99.90;;;;;;5064951;28;20044;-64
2022/06/26 08:27:10;;;;;;;6.40;5.25;;;20.20;99.90;;;;;;5065548;28;20060;-64
2022/06/26 08:29:37;;;;;;;5.90;5.35;;;20.10;99.90;;;;;;5065606;28;20304;-64
2022/06/26 08:32:04;;;;;;;7.35;5.15;;;19.90;99.90;;;;;;5065543;28;20036;-64
2022/06/26 08:34:30;;;;;;;7.50;5.43;;;19.80;99.90;;;;;;5064495;28;20056;-64
2022/06/26 08:36:55;;;;;;;11.02;5.22;;;19.80;99.90;;;;;;5065209;28;20071;-64
2022/06/26 08:39:22;;;;;;;5.07;4.60;;;19.80;99.90;;;;;;5064324;28;20041;-64
2022/06/26 08:41:48;;;;;;;7.40;4.32;;;19.70;99.90;;;;;;5065729;28;20463;-64
2022/06/26 08:44:14;;;;;;;4.78;4.38;;;19.60;99.90;;;;;;5064960;28;20087;-64
2022/06/26 08:46:45;;;;;;;4.65;3.38;;;19.50;99.90;;;;;;5065817;28;20431;-64
2022/06/26 08:49:16;;;;;;;3.58;3.28;;;19.50;99.90;;;;;;5065161;28;20513;-64
2022/06/26 08:51:44;;;;;;;4.70;3.37;;;19.60;99.90;;;;;;5065186;28;20087;-64
2022/06/26 08:54:12;;;;;;;4.95;3.92;;;19.60;99.90;;;;;;5065172;28;20740;-64
2022/06/26 08:56:41;;;;;;;5.78;4.43;;;19.70;99.90;;;;;;5065453;28;20131;-64
2022/06/26 08:59:11;;;;;;;5.45;4.05;;;19.90;99.90;;;;;;5064617;28;20075;-64
2022/06/26 09:01:38;;;;;;;8.05;5.43;;;20.20;99.90;;;;;;5065475;28;20407;-64
2022/06/26 09:04:05;;;;;;;7.50;4.63;;;20.40;99.90;;;;;;5065365;28;20045;-64
2022/06/26 09:06:36;;;;;;;5.03;3.25;;;20.50;99.90;;;;;;5064743;28;20044;-64
2022/06/26 09:09:16;;;;;;;4.25;2.55;;;20.50;99.90;;;;;;5064953;28;20534;-64
2022/06/26 09:11:42;;;;;;;2.30;2.10;;;20.50;99.90;;;;;;5065852;28;20068;-64
2022/06/26 09:14:07;;;;;;;3.83;2.30;;;20.60;99.90;;;;;;5062890;28;20049;-64
2022/06/26 09:16:33;;;;;;;4.07;2.40;;;20.60;99.90;;;;;;5065925;28;20090;-64
2022/06/26 09:19:13;;;;;;;3.72;2.20;;;20.70;99.90;;;;;;5066084;28;20044;-64
2022/06/26 09:21:40;;;;;;;4.65;2.72;;;20.80;99.90;;;;;;5069485;28;20048;-64
2022/06/26 09:24:10;;;;;;;2.97;2.75;;;20.90;99.90;;;;;;5068830;28;20353;-63
2022/06/26 09:26:36;;;;;;;5.20;3.50;;;21.10;99.90;;;;;;5068507;28;20098;-64
2022/06/26 09:29:12;;;;;;;3.55;2.47;;;21.20;99.90;;;;;;5068680;28;20049;-64
2022/06/26 09:31:39;;;;;;;1.90;1.60;;;21.20;99.90;;;;;;5068863;28;20048;-64
2022/06/26 09:34:06;;;;;;;1.75;1.52;;;21.00;99.90;;;;;;5066775;28;20044;-64
2022/06/26 09:36:33;;;;;;;2.50;1.70;;;21.00;99.90;;;;;;5069247;28;20059;-64
2022/06/26 09:38:58;;;;;;;1.77;1.20;;;20.90;99.90;;;;;;5068659;28;20048;-64
2022/06/26 09:41:32;;;;;;;1.73;1.40;;;21.20;99.90;;;;;;5066385;28;20541;-64
2022/06/26 09:43:58;;;;;;;2.28;1.40;;;21.20;99.90;;;;;;5068327;28;20483;-64
2022/06/26 09:46:32;;;;;;;1.35;1.10;;;21.20;99.90;;;;;;5068234;28;20099;-64
2022/06/26 09:49:00;;;;;;;1.42;1.25;;;21.30;99.90;;;;;;5067830;28;20090;-64
2022/06/26 09:51:26;;;;;;;3.47;1.52;;;21.40;99.90;;;;;;5068772;28;20109;-64
2022/06/26 09:53:53;;;;;;;3.10;1.50;;;21.50;99.90;;;;;;5068323;28;20124;-64
2022/06/26 09:56:19;;;;;;;1.90;1.70;;;21.50;99.90;;;;;;5066090;28;20106;-64
2022/06/26 09:58:44;;;;;;;4.68;1.58;;;21.60;99.90;;;;;;5068207;28;20044;-64
2022/06/26 10:06:43;;;;;;;2.95;2.00;;;21.80;99.90;;;;;;5068082;28;20049;-64
2022/06/26 10:09:09;;;;;;;3.80;1.73;;;21.90;99.90;;;;;;5066903;28;20120;-63
2022/06/26 10:11:37;;;;;;;3.30;1.65;;;22.00;99.90;;;;;;5067001;28;20506;-63
2022/06/26 10:14:06;;;;;;;1.75;1.65;;;22.10;99.90;;;;;;5068014;28;20051;-64
2022/06/26 10:17:25;;;;;;;3.42;1.48;;;22.10;99.90;;;;;;5067352;28;20612;-64
2022/06/26 10:19:56;;;;;;;6.45;1.80;;;22.30;99.90;;;;;;5005247;28;20691;-64
2022/06/26 10:22:21;;;;;;;2.17;1.70;;;22.40;99.90;;;;;;4988559;28;20493;-64
2022/06/26 10:24:51;;;;;;;1.70;1.30;;;22.40;99.90;;;;;;5042093;28;20059;-64
2022/06/26 10:27:26;;;;;;;2.60;1.58;;;22.40;99.90;;;;;;5067884;28;20063;-64
2022/06/26 10:30:10;;;;;;;2.10;1.67;;;22.20;99.90;;;;;;5065885;28;20460;-64
2022/06/26 10:32:36;;;;;;;1.83;1.55;;;22.10;99.90;;;;;;5066555;28;20054;-63
2022/06/26 10:35:04;;;;;;;2.92;1.52;;;22.00;99.90;;;;;;5067622;28;20123;-64
2022/06/26 10:37:50;;;;;;;1.17;1.00;;;21.90;99.90;;;;;;5067262;28;20094;-64
2022/06/26 10:43:11;;;;;;;2.35;1.50;;;21.90;99.90;;;;;;5067088;28;20088;-64
2022/06/26 10:45:39;;;;;;;3.70;1.45;;;22.00;99.90;;;;;;5066960;28;20055;-64
2022/06/26 10:48:10;;;;;;;2.67;1.45;;;22.10;99.90;;;;;;5067585;28;20045;-64
2022/06/26 10:50:41;;;;;;;3.38;1.38;;;21.90;99.90;;;;;;5067108;28;20086;-64
2022/06/26 10:53:39;;;;;;;3.13;1.50;;;21.90;99.90;;;;;;5066884;28;20044;-63
2022/06/26 10:56:07;;;;;;;2.15;1.80;;;21.90;99.90;;;;;;5032853;28;20526;-64
2022/06/26 10:58:35;;;;;;;1.70;1.45;;;21.90;99.90;;;;;;5066337;28;20526;-64
2022/06/26 11:01:04;;;;;;;3.13;1.52;;;22.00;99.90;;;;;;5066743;28;20076;-63
2022/06/26 11:03:30;;;;;;;2.47;2.00;;;22.10;99.90;;;;;;5066939;28;20082;-63
2022/06/26 11:06:10;;;;;;;2.25;1.65;;;22.30;99.90;;;;;;5064883;28;20288;-64
2022/06/26 11:08:38;;;;;;;3.85;2.00;;;22.30;99.90;;;;;;5067323;28;20462;-64
2022/06/26 11:11:08;;;;;;;2.08;1.48;;;22.40;99.90;;;;;;5067034;28;20083;-64
2022/06/26 11:13:35;;;;;;;2.25;2.00;;;22.30;99.90;;;;;;5066295;28;20068;-64
2022/06/26 11:16:05;;;;;;;3.65;1.80;;;22.20;99.90;;;;;;5066278;28;20036;-64
2022/06/26 11:18:35;;;;;;;2.17;1.70;;;22.10;99.90;;;;;;5065234;28;20471;-64
2022/06/26 11:21:01;;;;;;;1.83;1.58;;;22.00;99.90;;;;;;5066325;28;20048;-64
2022/06/26 11:23:36;;;;;;;2.78;2.03;;;22.10;99.90;;;;;;5065600;28;20107;-64
2022/06/26 11:26:08;;;;;;;3.08;1.95;;;22.10;99.90;;;;;;5065844;28;20075;-64
2022/06/26 11:28:38;;;;;;;2.30;1.80;;;22.10;99.90;;;;;;5065229;28;20086;-64
2022/06/26 11:31:05;;;;;;;2.00;1.75;;;22.10;99.90;;;;;;5066528;28;20124;-64
2022/06/26 11:33:33;;;;;;;2.70;1.83;;;22.30;99.90;;;;;;5065976;28;20127;-64
2022/06/26 11:36:09;;;;;;;1.77;1.65;;;22.50;99.90;;;;;;5066165;28;20067;-64
2022/06/26 11:38:36;;;;;;;2.22;1.40;;;22.70;99.90;;;;;;5066959;28;20438;-64
2022/06/26 11:41:05;;;;;;;3.10;1.83;;;22.80;99.90;;;;;;5063795;28;20132;-64
2022/06/26 11:43:31;;;;;;;3.97;1.60;;;22.80;99.90;;;;;;5066276;28;20082;-64
2022/06/26 11:45:58;;;;;;;2.65;1.40;;;22.90;99.90;;;;;;5066220;28;20202;-64
2022/06/26 11:48:24;;;;;;;2.63;1.92;;;22.90;99.90;;;;;;5065392;28;20138;-64
2022/06/26 11:50:53;;;;;;;2.88;1.90;;;22.80;99.90;;;;;;5065972;28;20072;-64
2022/06/26 11:53:21;;;;;;;2.30;2.00;;;22.80;99.90;;;;;;5065991;28;20044;-64
2022/06/26 11:55:53;;;;;;;5.55;1.75;;;22.60;99.90;;;;;;5065320;28;20098;-64
2022/06/26 11:58:22;;;;;;;4.45;1.80;;;22.50;99.90;;;;;;5065777;28;20517;-64
2022/06/26 12:00:48;;;;;;;2.17;1.70;;;22.50;99.90;;;;;;5065088;28;20044;-64
2022/06/26 12:03:14;;;;;;;5.10;2.00;;;22.40;99.90;;;;;;5066094;28;20049;-64
2022/06/26 12:05:42;;;;;;;3.92;1.60;;;22.40;99.90;;;;;;5066086;28;20124;-64
2022/06/26 12:08:16;;;;;;;3.25;2.00;;;22.30;99.90;;;;;;5064885;28;20044;-64
2022/06/26 12:10:45;;;;;;;3.95;2.20;;;22.40;99.90;;;;;;5065980;28;20063;-64
2022/06/26 12:13:33;;;;;;;1.98;1.40;;;22.50;99.90;;;;;;5065920;28;20135;-64
2022/06/26 12:16:04;;;;;;;3.05;1.98;;;22.50;99.90;;;;;;5065132;28;20064;-64
2022/06/26 12:18:30;;;;;;;5.32;1.77;;;22.60;99.90;;;;;;5065944;28;20040;-64
2022/06/26 12:20:56;;;;;;;3.17;1.60;;;22.60;99.90;;;;;;5065995;28;20044;-64
2022/06/26 12:23:39;;;;;;;2.30;1.65;;;22.60;99.90;;;;;;5065190;28;20044;-64
2022/06/26 12:26:07;;;;;;;4.68;1.70;;;22.60;99.90;;;;;;5064414;28;20053;-64
2022/06/26 12:28:41;;;;;;;2.97;1.33;;;22.60;99.90;;;;;;5066196;28;20057;-64
2022/06/26 12:31:06;;;;;;;2.47;1.08;;;22.70;99.90;;;;;;5064893;28;20044;-64
2022/06/26 12:33:32;;;;;;;3.15;1.20;;;22.70;99.90;;;;;;5065682;28;20048;-64
2022/06/26 12:35:58;;;;;;;3.50;1.80;;;22.80;99.90;;;;;;5065008;28;20085;-64
2022/06/26 12:38:26;;;;;;;2.33;1.50;;;22.80;99.90;;;;;;5065801;28;20043;-64
2022/06/26 12:40:52;;;;;;;4.00;1.40;;;22.70;99.90;;;;;;5063914;28;20056;-64
2022/06/26 12:43:18;;;;;;;3.35;1.25;;;22.60;99.90;;;;;;5064766;28;20044;-64
2022/06/26 12:45:44;;;;;;;4.25;1.40;;;22.60;99.90;;;;;;5065968;28;20045;-64
2022/06/26 12:48:09;;;;;;;1.92;1.50;;;22.60;99.90;;;;;;5064069;28;20090;-64
2022/06/26 12:50:35;;;;;;;2.67;1.45;;;22.70;99.90;;;;;;5065232;28;20052;-64
2022/06/26 12:53:01;;;;;;;2.75;1.52;;;22.80;99.90;;;;;;5066600;28;20051;-64
2022/06/26 12:55:26;;;;;;;2.38;1.67;;;22.70;99.90;;;;;;5069979;28;20375;-64
2022/06/26 12:57:52;;;;;;;2.65;1.42;;;22.80;99.90;;;;;;5068274;28;20064;-64